sensor_id;sensor_type;location;lat;lon;timestamp;temperature;humidity
29201;DHT22;16244;51.956;12.980;2023-01-10T00:01:48;5.20;97.50
29201;DHT22;16244;51.956;12.980;2023-01-10T00:04:15;5.20;97.50
29201;DHT22;16244;51.956;12.980;2023-01-10T00:06:42;5.30;97.30
29201;DHT22;16244;51.956;12.980;2023-01-10T00:09:10;5.30;97.40
29201;DHT22;16244;51.956;12.980;2023-01-10T00:11:37;5.30;97.20
29201;DHT22;16244;51.956;12.980;2023-01-10T00:14:25;5.30;97.10
29201;DHT22;16244;51.956;12.980;2023-01-10T00:16:53;5.40;97.00
29201;DHT22;16244;51.956;12.980;2023-01-10T00:19:20;5.40;97.10
29201;DHT22;16244;51.956;12.980;2023-01-10T00:21:47;5.40;97.00
29201;DHT22;16244;51.956;12.980;2023-01-10T00:24:15;5.40;97.10
29201;DHT22;16244;51.956;12.980;2023-01-10T00:26:46;5.40;97.10
29201;DHT22;16244;51.956;12.980;2023-01-10T00:29:16;5.40;97.00
29201;DHT22;16244;51.956;12.980;2023-01-10T00:31:45;5.40;97.00
29201;DHT22;16244;51.956;12.980;2023-01-10T00:34:13;5.40;97.10
29201;DHT22;16244;51.956;12.980;2023-01-10T00:36:40;5.40;97.10
29201;DHT22;16244;51.956;12.980;2023-01-10T00:39:07;5.40;97.20
29201;DHT22;16244;51.956;12.980;2023-01-10T00:41:39;5.40;97.30
29201;DHT22;16244;51.956;12.980;2023-01-10T00:44:24;5.50;97.20
29201;DHT22;16244;51.956;12.980;2023-01-10T00:46:52;5.40;97.30
29201;DHT22;16244;51.956;12.980;2023-01-10T00:49:19;5.40;97.40
29201;DHT22;16244;51.956;12.980;2023-01-10T00:51:47;5.40;97.50
29201;DHT22;16244;51.956;12.980;2023-01-10T00:54:14;5.40;97.50
29201;DHT22;16244;51.956;12.980;2023-01-10T00:56:41;5.50;97.50
29201;DHT22;16244;51.956;12.980;2023-01-10T00:59:08;5.50;97.60
29201;DHT22;16244;51.956;12.980;2023-01-10T01:01:36;5.40;97.90
29201;DHT22;16244;51.956;12.980;2023-01-10T01:04:04;5.40;98.00
29201;DHT22;16244;51.956;12.980;2023-01-10T01:06:31;5.40;98.10
29201;DHT22;16244;51.956;12.980;2023-01-10T01:08:58;5.30;97.90
29201;DHT22;16244;51.956;12.980;2023-01-10T01:11:26;5.30;98.00
29201;DHT22;16244;51.956;12.980;2023-01-10T01:13:53;5.30;98.00
29201;DHT22;16244;51.956;12.980;2023-01-10T01:16:20;5.30;98.10
29201;DHT22;16244;51.956;12.980;2023-01-10T01:18:47;5.20;98.10
29201;DHT22;16244;51.956;12.980;2023-01-10T01:21:15;5.20;97.80
29201;DHT22;16244;51.956;12.980;2023-01-10T01:23:42;5.20;98.10
29201;DHT22;16244;51.956;12.980;2023-01-10T01:26:09;5.20;98.10
29201;DHT22;16244;51.956;12.980;2023-01-10T01:28:36;5.10;98.20
29201;DHT22;16244;51.956;12.980;2023-01-10T01:31:07;5.10;98.40
29201;DHT22;16244;51.956;12.980;2023-01-10T01:33:35;5.10;98.50
29201;DHT22;16244;51.956;12.980;2023-01-10T01:36:07;5.20;98.40
29201;DHT22;16244;51.956;12.980;2023-01-10T01:38:35;5.10;98.40
29201;DHT22;16244;51.956;12.980;2023-01-10T01:41:03;5.00;98.50
29201;DHT22;16244;51.956;12.980;2023-01-10T01:44:04;5.10;98.60
29201;DHT22;16244;51.956;12.980;2023-01-10T01:46:34;5.10;98.50
29201;DHT22;16244;51.956;12.980;2023-01-10T01:49:03;5.10;98.30
29201;DHT22;16244;51.956;12.980;2023-01-10T01:51:32;5.20;98.20
29201;DHT22;16244;51.956;12.980;2023-01-10T01:54:04;5.20;98.20
29201;DHT22;16244;51.956;12.980;2023-01-10T01:56:35;5.20;98.20
29201;DHT22;16244;51.956;12.980;2023-01-10T01:59:07;5.10;98.10
29201;DHT22;16244;51.956;12.980;2023-01-10T02:01:37;5.10;98.10
29201;DHT22;16244;51.956;12.980;2023-01-10T02:04:10;5.10;98.00
29201;DHT22;16244;51.956;12.980;2023-01-10T02:06:37;5.10;97.90
29201;DHT22;16244;51.956;12.980;2023-01-10T02:09:14;5.00;98.00
29201;DHT22;16244;51.956;12.980;2023-01-10T02:11:43;5.00;98.10
29201;DHT22;16244;51.956;12.980;2023-01-10T02:14:11;4.90;98.00
29201;DHT22;16244;51.956;12.980;2023-01-10T02:16:40;4.90;97.90
29201;DHT22;16244;51.956;12.980;2023-01-10T02:19:12;4.90;97.80
29201;DHT22;16244;51.956;12.980;2023-01-10T02:22:04;4.90;97.80
29201;DHT22;16244;51.956;12.980;2023-01-10T02:25:06;4.90;97.80
29201;DHT22;16244;51.956;12.980;2023-01-10T02:27:53;4.70;98.30
29201;DHT22;16244;51.956;12.980;2023-01-10T02:33:26;4.60;98.00
29201;DHT22;16244;51.956;12.980;2023-01-10T02:36:04;4.60;97.90
29201;DHT22;16244;51.956;12.980;2023-01-10T02:38:45;4.50;98.10
29201;DHT22;16244;51.956;12.980;2023-01-10T02:41:21;4.50;98.50
29201;DHT22;16244;51.956;12.980;2023-01-10T02:43:56;4.70;98.60
29201;DHT22;16244;51.956;12.980;2023-01-10T02:46:26;4.70;98.60
29201;DHT22;16244;51.956;12.980;2023-01-10T02:48:56;4.70;98.70
29201;DHT22;16244;51.956;12.980;2023-01-10T02:51:24;4.70;98.80
29201;DHT22;16244;51.956;12.980;2023-01-10T02:53:56;4.80;99.00
29201;DHT22;16244;51.956;12.980;2023-01-10T02:56:47;4.80;99.00
29201;DHT22;16244;51.956;12.980;2023-01-10T02:59:40;4.80;99.00
29201;DHT22;16244;51.956;12.980;2023-01-10T03:02:17;4.80;99.10
29201;DHT22;16244;51.956;12.980;2023-01-10T03:04:53;4.90;99.00
29201;DHT22;16244;51.956;12.980;2023-01-10T03:07:27;5.00;99.10
29201;DHT22;16244;51.956;12.980;2023-01-10T03:10:04;5.00;99.30
29201;DHT22;16244;51.956;12.980;2023-01-10T03:12:38;5.00;99.40
29201;DHT22;16244;51.956;12.980;2023-01-10T03:15:07;5.10;99.40
29201;DHT22;16244;51.956;12.980;2023-01-10T03:17:38;5.10;99.40
29201;DHT22;16244;51.956;12.980;2023-01-10T03:20:09;5.10;99.40
29201;DHT22;16244;51.956;12.980;2023-01-10T03:22:38;5.10;99.40
29201;DHT22;16244;51.956;12.980;2023-01-10T03:25:09;5.10;99.30
29201;DHT22;16244;51.956;12.980;2023-01-10T03:27:41;5.10;99.30
29201;DHT22;16244;51.956;12.980;2023-01-10T03:30:17;5.20;99.20
29201;DHT22;16244;51.956;12.980;2023-01-10T03:32:47;5.20;99.20
29201;DHT22;16244;51.956;12.980;2023-01-10T03:35:16;5.20;99.30
29201;DHT22;16244;51.956;12.980;2023-01-10T03:37:50;5.20;99.20
29201;DHT22;16244;51.956;12.980;2023-01-10T03:40:25;5.20;99.20
29201;DHT22;16244;51.956;12.980;2023-01-10T03:42:57;5.20;99.20
29201;DHT22;16244;51.956;12.980;2023-01-10T03:45:47;5.20;99.30
29201;DHT22;16244;51.956;12.980;2023-01-10T03:48:18;5.20;99.30
29201;DHT22;16244;51.956;12.980;2023-01-10T03:50:48;5.20;99.30
29201;DHT22;16244;51.956;12.980;2023-01-10T03:53:17;5.20;99.20
29201;DHT22;16244;51.956;12.980;2023-01-10T03:55:44;5.30;99.20
29201;DHT22;16244;51.956;12.980;2023-01-10T03:58:11;5.20;99.20
29201;DHT22;16244;51.956;12.980;2023-01-10T04:00:38;5.20;99.20
29201;DHT22;16244;51.956;12.980;2023-01-10T04:03:06;5.20;99.10
29201;DHT22;16244;51.956;12.980;2023-01-10T04:05:34;5.10;99.00
29201;DHT22;16244;51.956;12.980;2023-01-10T04:08:03;5.20;99.00
29201;DHT22;16244;51.956;12.980;2023-01-10T04:10:30;5.20;98.90
29201;DHT22;16244;51.956;12.980;2023-01-10T04:12:58;5.10;98.90
29201;DHT22;16244;51.956;12.980;2023-01-10T04:15:27;5.10;98.90
29201;DHT22;16244;51.956;12.980;2023-01-10T04:17:54;5.10;99.00
29201;DHT22;16244;51.956;12.980;2023-01-10T04:20:22;5.10;99.10
29201;DHT22;16244;51.956;12.980;2023-01-10T04:22:51;5.10;99.10
29201;DHT22;16244;51.956;12.980;2023-01-10T04:25:21;5.10;99.20
29201;DHT22;16244;51.956;12.980;2023-01-10T04:27:48;5.20;99.20
29201;DHT22;16244;51.956;12.980;2023-01-10T04:30:16;5.20;99.10
29201;DHT22;16244;51.956;12.980;2023-01-10T04:32:44;5.20;99.10
29201;DHT22;16244;51.956;12.980;2023-01-10T04:35:11;5.20;99.00
29201;DHT22;16244;51.956;12.980;2023-01-10T04:37:38;5.20;98.90
29201;DHT22;16244;51.956;12.980;2023-01-10T04:40:06;5.20;99.00
29201;DHT22;16244;51.956;12.980;2023-01-10T04:42:35;5.20;99.00
29201;DHT22;16244;51.956;12.980;2023-01-10T04:45:03;5.20;99.00
29201;DHT22;16244;51.956;12.980;2023-01-10T04:47:30;5.20;99.00
29201;DHT22;16244;51.956;12.980;2023-01-10T04:49:57;5.20;98.90
29201;DHT22;16244;51.956;12.980;2023-01-10T04:52:24;5.20;98.70
29201;DHT22;16244;51.956;12.980;2023-01-10T04:54:53;5.20;98.60
29201;DHT22;16244;51.956;12.980;2023-01-10T04:57:20;5.20;98.60
29201;DHT22;16244;51.956;12.980;2023-01-10T04:59:48;5.20;98.60
29201;DHT22;16244;51.956;12.980;2023-01-10T05:02:15;5.30;98.40
29201;DHT22;16244;51.956;12.980;2023-01-10T05:04:42;5.30;98.50
29201;DHT22;16244;51.956;12.980;2023-01-10T05:07:09;5.30;98.30
29201;DHT22;16244;51.956;12.980;2023-01-10T05:09:37;5.30;98.20
29201;DHT22;16244;51.956;12.980;2023-01-10T05:12:04;5.30;98.20
29201;DHT22;16244;51.956;12.980;2023-01-10T05:14:31;5.30;98.20
29201;DHT22;16244;51.956;12.980;2023-01-10T05:17:00;5.20;98.20
29201;DHT22;16244;51.956;12.980;2023-01-10T05:19:27;5.20;98.10
29201;DHT22;16244;51.956;12.980;2023-01-10T05:21:54;5.30;98.10
29201;DHT22;16244;51.956;12.980;2023-01-10T05:24:22;5.20;98.10
29201;DHT22;16244;51.956;12.980;2023-01-10T05:26:49;5.30;98.10
29201;DHT22;16244;51.956;12.980;2023-01-10T05:29:16;5.30;97.90
29201;DHT22;16244;51.956;12.980;2023-01-10T05:31:43;5.30;97.90
29201;DHT22;16244;51.956;12.980;2023-01-10T05:34:11;5.30;98.00
29201;DHT22;16244;51.956;12.980;2023-01-10T05:36:39;5.20;97.90
29201;DHT22;16244;51.956;12.980;2023-01-10T05:39:06;5.20;97.90
29201;DHT22;16244;51.956;12.980;2023-01-10T05:41:33;5.30;98.00
29201;DHT22;16244;51.956;12.980;2023-01-10T05:44:00;5.20;97.80
29201;DHT22;16244;51.956;12.980;2023-01-10T05:46:27;5.20;97.70
29201;DHT22;16244;51.956;12.980;2023-01-10T05:48:55;5.20;97.80
29201;DHT22;16244;51.956;12.980;2023-01-10T05:51:23;5.20;97.80
29201;DHT22;16244;51.956;12.980;2023-01-10T05:53:50;5.20;97.90
29201;DHT22;16244;51.956;12.980;2023-01-10T05:56:17;5.20;97.70
29201;DHT22;16244;51.956;12.980;2023-01-10T05:58:45;5.20;97.70
29201;DHT22;16244;51.956;12.980;2023-01-10T06:01:12;5.20;97.80
29201;DHT22;16244;51.956;12.980;2023-01-10T06:03:39;5.10;97.80
29201;DHT22;16244;51.956;12.980;2023-01-10T06:06:06;5.20;97.70
29201;DHT22;16244;51.956;12.980;2023-01-10T06:08:35;5.20;97.80
29201;DHT22;16244;51.956;12.980;2023-01-10T06:11:03;5.20;97.80
29201;DHT22;16244;51.956;12.980;2023-01-10T06:13:30;5.10;97.80
29201;DHT22;16244;51.956;12.980;2023-01-10T06:15:57;5.10;97.90
29201;DHT22;16244;51.956;12.980;2023-01-10T06:18:24;5.10;98.00
29201;DHT22;16244;51.956;12.980;2023-01-10T06:20:51;5.00;97.90
29201;DHT22;16244;51.956;12.980;2023-01-10T06:23:18;5.00;98.00
29201;DHT22;16244;51.956;12.980;2023-01-10T06:25:47;5.00;97.90
29201;DHT22;16244;51.956;12.980;2023-01-10T06:28:15;5.00;98.00
29201;DHT22;16244;51.956;12.980;2023-01-10T06:30:42;5.10;98.00
29201;DHT22;16244;51.956;12.980;2023-01-10T06:33:09;5.10;98.10
29201;DHT22;16244;51.956;12.980;2023-01-10T06:35:37;5.20;98.10
29201;DHT22;16244;51.956;12.980;2023-01-10T06:38:04;5.10;98.10
29201;DHT22;16244;51.956;12.980;2023-01-10T06:40:31;5.10;98.10
29201;DHT22;16244;51.956;12.980;2023-01-10T06:43:00;5.10;98.00
29201;DHT22;16244;51.956;12.980;2023-01-10T06:45:27;5.20;97.90
29201;DHT22;16244;51.956;12.980;2023-01-10T06:47:55;5.20;98.00
29201;DHT22;16244;51.956;12.980;2023-01-10T06:50:22;5.20;98.00
29201;DHT22;16244;51.956;12.980;2023-01-10T06:52:54;5.10;98.00
29201;DHT22;16244;51.956;12.980;2023-01-10T06:55:22;5.10;98.10
29201;DHT22;16244;51.956;12.980;2023-01-10T06:57:54;5.10;98.00
29201;DHT22;16244;51.956;12.980;2023-01-10T07:00:24;5.10;98.00
29201;DHT22;16244;51.956;12.980;2023-01-10T07:02:52;5.10;97.90
29201;DHT22;16244;51.956;12.980;2023-01-10T07:05:21;5.10;97.80
29201;DHT22;16244;51.956;12.980;2023-01-10T07:07:48;5.10;97.90
29201;DHT22;16244;51.956;12.980;2023-01-10T07:10:16;5.10;98.00
29201;DHT22;16244;51.956;12.980;2023-01-10T07:12:43;5.10;98.00
29201;DHT22;16244;51.956;12.980;2023-01-10T07:15:10;5.10;97.90
29201;DHT22;16244;51.956;12.980;2023-01-10T07:17:39;5.10;97.90
29201;DHT22;16244;51.956;12.980;2023-01-10T07:20:07;5.10;98.00
29201;DHT22;16244;51.956;12.980;2023-01-10T07:22:35;5.10;98.20
29201;DHT22;16244;51.956;12.980;2023-01-10T07:25:02;5.10;98.20
29201;DHT22;16244;51.956;12.980;2023-01-10T07:27:30;5.20;98.10
29201;DHT22;16244;51.956;12.980;2023-01-10T07:29:57;5.20;98.10
29201;DHT22;16244;51.956;12.980;2023-01-10T07:32:25;5.20;98.20
29201;DHT22;16244;51.956;12.980;2023-01-10T07:34:53;5.10;98.20
29201;DHT22;16244;51.956;12.980;2023-01-10T07:37:20;5.20;98.20
29201;DHT22;16244;51.956;12.980;2023-01-10T07:39:47;5.20;98.20
29201;DHT22;16244;51.956;12.980;2023-01-10T07:42:14;5.20;98.20
29201;DHT22;16244;51.956;12.980;2023-01-10T07:44:41;5.20;98.00
29201;DHT22;16244;51.956;12.980;2023-01-10T07:47:09;5.20;98.10
29201;DHT22;16244;51.956;12.980;2023-01-10T07:49:36;5.20;98.20
29201;DHT22;16244;51.956;12.980;2023-01-10T07:52:04;5.30;98.00
29201;DHT22;16244;51.956;12.980;2023-01-10T07:54:33;5.20;97.80
29201;DHT22;16244;51.956;12.980;2023-01-10T07:57:01;5.20;98.00
29201;DHT22;16244;51.956;12.980;2023-01-10T07:59:28;5.30;98.00
29201;DHT22;16244;51.956;12.980;2023-01-10T08:01:55;5.30;98.00
29201;DHT22;16244;51.956;12.980;2023-01-10T08:04:22;5.30;97.90
29201;DHT22;16244;51.956;12.980;2023-01-10T08:06:49;5.30;97.90
29201;DHT22;16244;51.956;12.980;2023-01-10T08:09:18;5.40;97.90
29201;DHT22;16244;51.956;12.980;2023-01-10T08:11:45;5.30;98.00
29201;DHT22;16244;51.956;12.980;2023-01-10T08:14:12;5.40;97.80
29201;DHT22;16244;51.956;12.980;2023-01-10T08:16:39;5.40;97.80
29201;DHT22;16244;51.956;12.980;2023-01-10T08:19:07;5.40;97.80
29201;DHT22;16244;51.956;12.980;2023-01-10T08:21:34;5.30;97.90
29201;DHT22;16244;51.956;12.980;2023-01-10T08:24:01;5.30;98.10
29201;DHT22;16244;51.956;12.980;2023-01-10T08:26:29;5.40;98.10
29201;DHT22;16244;51.956;12.980;2023-01-10T08:28:56;5.40;98.20
29201;DHT22;16244;51.956;12.980;2023-01-10T08:31:24;5.50;98.20
29201;DHT22;16244;51.956;12.980;2023-01-10T08:33:51;5.40;98.10
29201;DHT22;16244;51.956;12.980;2023-01-10T08:36:19;5.50;98.10
29201;DHT22;16244;51.956;12.980;2023-01-10T08:38:47;5.50;98.30
29201;DHT22;16244;51.956;12.980;2023-01-10T08:41:16;5.50;98.30
29201;DHT22;16244;51.956;12.980;2023-01-10T08:43:44;5.50;98.30
29201;DHT22;16244;51.956;12.980;2023-01-10T08:46:11;5.50;98.30
29201;DHT22;16244;51.956;12.980;2023-01-10T08:48:38;5.60;98.30
29201;DHT22;16244;51.956;12.980;2023-01-10T08:51:07;5.60;98.30
29201;DHT22;16244;51.956;12.980;2023-01-10T08:53:37;5.70;98.30
29201;DHT22;16244;51.956;12.980;2023-01-10T08:56:06;5.60;98.10
29201;DHT22;16244;51.956;12.980;2023-01-10T08:58:34;5.70;98.20
29201;DHT22;16244;51.956;12.980;2023-01-10T09:01:04;5.70;98.00
29201;DHT22;16244;51.956;12.980;2023-01-10T09:03:31;5.70;97.90
29201;DHT22;16244;51.956;12.980;2023-01-10T09:05:59;5.70;98.00
29201;DHT22;16244;51.956;12.980;2023-01-10T09:08:27;5.80;97.60
29201;DHT22;16244;51.956;12.980;2023-01-10T09:10:56;5.70;97.60
29201;DHT22;16244;51.956;12.980;2023-01-10T09:13:24;5.80;97.90
29201;DHT22;16244;51.956;12.980;2023-01-10T09:15:51;6.00;97.80
29201;DHT22;16244;51.956;12.980;2023-01-10T09:18:20;6.00;97.50
29201;DHT22;16244;51.956;12.980;2023-01-10T09:20:48;6.00;97.70
29201;DHT22;16244;51.956;12.980;2023-01-10T09:23:19;6.00;97.70
29201;DHT22;16244;51.956;12.980;2023-01-10T09:25:47;6.10;97.60
29201;DHT22;16244;51.956;12.980;2023-01-10T09:28:15;6.00;97.40
29201;DHT22;16244;51.956;12.980;2023-01-10T09:30:44;6.00;97.60
29201;DHT22;16244;51.956;12.980;2023-01-10T09:33:11;6.10;97.50
29201;DHT22;16244;51.956;12.980;2023-01-10T09:35:41;6.10;97.30
29201;DHT22;16244;51.956;12.980;2023-01-10T09:38:10;6.20;97.50
29201;DHT22;16244;51.956;12.980;2023-01-10T09:40:50;6.10;97.30
29201;DHT22;16244;51.956;12.980;2023-01-10T09:43:27;6.20;97.40
29201;DHT22;16244;51.956;12.980;2023-01-10T09:46:00;6.30;97.30
29201;DHT22;16244;51.956;12.980;2023-01-10T09:48:36;6.50;96.80
29201;DHT22;16244;51.956;12.980;2023-01-10T09:51:18;6.40;96.50
29201;DHT22;16244;51.956;12.980;2023-01-10T09:53:50;6.50;96.90
29201;DHT22;16244;51.956;12.980;2023-01-10T09:56:20;6.50;96.80
29201;DHT22;16244;51.956;12.980;2023-01-10T09:58:47;6.50;96.70
29201;DHT22;16244;51.956;12.980;2023-01-10T10:01:16;6.60;96.60
29201;DHT22;16244;51.956;12.980;2023-01-10T10:03:50;6.70;96.50
29201;DHT22;16244;51.956;12.980;2023-01-10T10:06:21;6.70;96.20
29201;DHT22;16244;51.956;12.980;2023-01-10T10:08:50;6.80;96.20
29201;DHT22;16244;51.956;12.980;2023-01-10T10:11:33;6.80;95.70
29201;DHT22;16244;51.956;12.980;2023-01-10T10:14:06;6.80;95.80
29201;DHT22;16244;51.956;12.980;2023-01-10T10:16:56;6.80;95.50
29201;DHT22;16244;51.956;12.980;2023-01-10T10:19:32;6.90;95.50
29201;DHT22;16244;51.956;12.980;2023-01-10T10:22:07;6.90;95.30
29201;DHT22;16244;51.956;12.980;2023-01-10T10:24:45;6.90;95.40
29201;DHT22;16244;51.956;12.980;2023-01-10T10:27:20;6.90;95.70
29201;DHT22;16244;51.956;12.980;2023-01-10T10:30:01;6.90;95.20
29201;DHT22;16244;51.956;12.980;2023-01-10T10:32:49;7.00;95.20
29201;DHT22;16244;51.956;12.980;2023-01-10T10:35:25;6.90;95.20
29201;DHT22;16244;51.956;12.980;2023-01-10T10:37:57;6.90;95.10
29201;DHT22;16244;51.956;12.980;2023-01-10T10:40:30;6.90;95.50
29201;DHT22;16244;51.956;12.980;2023-01-10T10:43:17;6.90;95.20
29201;DHT22;16244;51.956;12.980;2023-01-10T10:45:50;6.90;95.00
29201;DHT22;16244;51.956;12.980;2023-01-10T10:48:21;7.00;94.60
29201;DHT22;16244;51.956;12.980;2023-01-10T10:50:55;7.00;95.00
29201;DHT22;16244;51.956;12.980;2023-01-10T10:53:27;7.00;94.90
29201;DHT22;16244;51.956;12.980;2023-01-10T10:55:56;7.00;94.20
29201;DHT22;16244;51.956;12.980;2023-01-10T10:58:23;6.90;94.70
29201;DHT22;16244;51.956;12.980;2023-01-10T11:00:51;6.90;94.80
29201;DHT22;16244;51.956;12.980;2023-01-10T11:03:26;6.90;94.40
29201;DHT22;16244;51.956;12.980;2023-01-10T11:05:55;6.90;94.00
29201;DHT22;16244;51.956;12.980;2023-01-10T11:08:23;6.80;94.00
29201;DHT22;16244;51.956;12.980;2023-01-10T11:10:54;6.80;94.20
29201;DHT22;16244;51.956;12.980;2023-01-10T11:13:29;6.80;94.10
29201;DHT22;16244;51.956;12.980;2023-01-10T11:16:02;6.90;93.80
29201;DHT22;16244;51.956;12.980;2023-01-10T11:18:31;6.90;93.80
29201;DHT22;16244;51.956;12.980;2023-01-10T11:21:00;6.90;93.80
29201;DHT22;16244;51.956;12.980;2023-01-10T11:23:37;6.90;93.70
29201;DHT22;16244;51.956;12.980;2023-01-10T11:26:20;7.00;93.60
29201;DHT22;16244;51.956;12.980;2023-01-10T11:28:47;7.10;93.60
29201;DHT22;16244;51.956;12.980;2023-01-10T11:31:25;7.10;93.30
29201;DHT22;16244;51.956;12.980;2023-01-10T11:33:53;7.10;93.40
29201;DHT22;16244;51.956;12.980;2023-01-10T11:36:21;7.20;93.40
29201;DHT22;16244;51.956;12.980;2023-01-10T11:38:59;7.20;92.70
29201;DHT22;16244;51.956;12.980;2023-01-10T11:41:28;7.20;92.10
29201;DHT22;16244;51.956;12.980;2023-01-10T11:44:15;7.10;92.10
29201;DHT22;16244;51.956;12.980;2023-01-10T11:46:43;7.10;92.10
29201;DHT22;16244;51.956;12.980;2023-01-10T11:49:13;7.10;92.20
29201;DHT22;16244;51.956;12.980;2023-01-10T11:51:47;7.20;92.20
29201;DHT22;16244;51.956;12.980;2023-01-10T11:54:18;7.20;91.90
29201;DHT22;16244;51.956;12.980;2023-01-10T11:56:54;7.30;91.70
29201;DHT22;16244;51.956;12.980;2023-01-10T11:59:23;7.40;91.40
29201;DHT22;16244;51.956;12.980;2023-01-10T12:01:56;7.40;91.30
29201;DHT22;16244;51.956;12.980;2023-01-10T12:04:27;7.30;91.30
29201;DHT22;16244;51.956;12.980;2023-01-10T12:07:00;7.30;91.50
29201;DHT22;16244;51.956;12.980;2023-01-10T12:09:34;7.20;91.70
29201;DHT22;16244;51.956;12.980;2023-01-10T12:12:04;7.20;91.70
29201;DHT22;16244;51.956;12.980;2023-01-10T12:14:32;7.20;92.00
29201;DHT22;16244;51.956;12.980;2023-01-10T12:16:59;7.20;91.00
29201;DHT22;16244;51.956;12.980;2023-01-10T12:19:27;7.20;91.00
29201;DHT22;16244;51.956;12.980;2023-01-10T12:21:59;7.30;90.70
29201;DHT22;16244;51.956;12.980;2023-01-10T12:24:31;7.30;90.80
29201;DHT22;16244;51.956;12.980;2023-01-10T12:27:00;7.30;90.30
29201;DHT22;16244;51.956;12.980;2023-01-10T12:29:33;7.40;90.40
29201;DHT22;16244;51.956;12.980;2023-01-10T12:32:02;7.40;90.60
29201;DHT22;16244;51.956;12.980;2023-01-10T12:34:38;7.40;90.60
29201;DHT22;16244;51.956;12.980;2023-01-10T12:37:11;7.40;90.50
29201;DHT22;16244;51.956;12.980;2023-01-10T12:39:45;7.40;90.00
29201;DHT22;16244;51.956;12.980;2023-01-10T12:42:23;7.40;90.40
29201;DHT22;16244;51.956;12.980;2023-01-10T12:45:22;7.40;90.10
29201;DHT22;16244;51.956;12.980;2023-01-10T12:47:55;7.40;90.40
29201;DHT22;16244;51.956;12.980;2023-01-10T12:50:27;7.40;90.60
29201;DHT22;16244;51.956;12.980;2023-01-10T12:53:01;7.40;90.20
29201;DHT22;16244;51.956;12.980;2023-01-10T12:55:33;7.40;90.30
29201;DHT22;16244;51.956;12.980;2023-01-10T12:58:02;7.30;89.50
29201;DHT22;16244;51.956;12.980;2023-01-10T13:00:35;7.30;90.30
29201;DHT22;16244;51.956;12.980;2023-01-10T13:03:10;7.30;90.50
29201;DHT22;16244;51.956;12.980;2023-01-10T13:05:38;7.30;90.00
29201;DHT22;16244;51.956;12.980;2023-01-10T13:08:09;7.30;90.00
29201;DHT22;16244;51.956;12.980;2023-01-10T13:10:40;7.30;90.00
29201;DHT22;16244;51.956;12.980;2023-01-10T13:13:14;7.30;90.10
29201;DHT22;16244;51.956;12.980;2023-01-10T13:15:51;7.30;90.30
29201;DHT22;16244;51.956;12.980;2023-01-10T13:18:23;7.30;90.30
29201;DHT22;16244;51.956;12.980;2023-01-10T13:21:02;7.30;90.60
29201;DHT22;16244;51.956;12.980;2023-01-10T13:23:47;7.30;90.60
29201;DHT22;16244;51.956;12.980;2023-01-10T13:26:15;7.30;90.60
29201;DHT22;16244;51.956;12.980;2023-01-10T13:28:52;7.30;91.10
29201;DHT22;16244;51.956;12.980;2023-01-10T13:31:24;7.20;91.50
29201;DHT22;16244;51.956;12.980;2023-01-10T13:33:54;7.20;91.70
29201;DHT22;16244;51.956;12.980;2023-01-10T13:36:24;7.10;91.80
29201;DHT22;16244;51.956;12.980;2023-01-10T13:38:53;7.10;91.80
29201;DHT22;16244;51.956;12.980;2023-01-10T13:41:22;7.20;91.90
29201;DHT22;16244;51.956;12.980;2023-01-10T13:44:09;7.20;92.10
29201;DHT22;16244;51.956;12.980;2023-01-10T13:46:40;7.20;92.10
29201;DHT22;16244;51.956;12.980;2023-01-10T13:52:28;7.10;92.20
29201;DHT22;16244;51.956;12.980;2023-01-10T13:54:57;7.00;92.30
29201;DHT22;16244;51.956;12.980;2023-01-10T13:57:50;7.00;92.40
29201;DHT22;16244;51.956;12.980;2023-01-10T14:00:40;6.90;92.60
29201;DHT22;16244;51.956;12.980;2023-01-10T14:03:41;6.80;92.60
29201;DHT22;16244;51.956;12.980;2023-01-10T14:06:15;6.70;92.50
29201;DHT22;16244;51.956;12.980;2023-01-10T14:08:52;6.60;92.70
29201;DHT22;16244;51.956;12.980;2023-01-10T14:11:21;6.50;93.00
29201;DHT22;16244;51.956;12.980;2023-01-10T14:13:51;6.50;93.00
29201;DHT22;16244;51.956;12.980;2023-01-10T14:16:40;6.50;93.00
29201;DHT22;16244;51.956;12.980;2023-01-10T14:19:22;6.30;93.10
29201;DHT22;16244;51.956;12.980;2023-01-10T14:21:59;6.30;93.10
29201;DHT22;16244;51.956;12.980;2023-01-10T14:24:29;6.30;93.60
29201;DHT22;16244;51.956;12.980;2023-01-10T14:27:00;6.20;92.90
29201;DHT22;16244;51.956;12.980;2023-01-10T14:29:31;6.20;92.80
29201;DHT22;16244;51.956;12.980;2023-01-10T14:32:00;6.10;92.70
29201;DHT22;16244;51.956;12.980;2023-01-10T14:34:31;6.20;92.80
29201;DHT22;16244;51.956;12.980;2023-01-10T14:37:05;6.20;92.80
29201;DHT22;16244;51.956;12.980;2023-01-10T14:39:34;6.10;93.30
29201;DHT22;16244;51.956;12.980;2023-01-10T14:42:05;6.10;92.90
29201;DHT22;16244;51.956;12.980;2023-01-10T14:44:39;6.10;92.80
29201;DHT22;16244;51.956;12.980;2023-01-10T14:47:26;6.10;92.80
29201;DHT22;16244;51.956;12.980;2023-01-10T14:49:55;6.00;92.70
29201;DHT22;16244;51.956;12.980;2023-01-10T14:52:25;6.00;92.70
29201;DHT22;16244;51.956;12.980;2023-01-10T14:55:02;6.00;92.70
29201;DHT22;16244;51.956;12.980;2023-01-10T14:57:30;6.00;92.80
29201;DHT22;16244;51.956;12.980;2023-01-10T15:00:06;6.00;93.00
29201;DHT22;16244;51.956;12.980;2023-01-10T15:02:34;6.00;92.60
29201;DHT22;16244;51.956;12.980;2023-01-10T15:05:14;6.00;92.60
29201;DHT22;16244;51.956;12.980;2023-01-10T15:07:42;6.00;92.90
29201;DHT22;16244;51.956;12.980;2023-01-10T15:10:21;6.00;92.80
29201;DHT22;16244;51.956;12.980;2023-01-10T15:12:51;6.00;92.60
29201;DHT22;16244;51.956;12.980;2023-01-10T15:15:23;6.10;92.70
29201;DHT22;16244;51.956;12.980;2023-01-10T15:17:53;6.00;92.70
29201;DHT22;16244;51.956;12.980;2023-01-10T15:20:22;6.10;92.80
29201;DHT22;16244;51.956;12.980;2023-01-10T15:22:54;6.10;92.80
29201;DHT22;16244;51.956;12.980;2023-01-10T15:25:28;6.10;92.70
29201;DHT22;16244;51.956;12.980;2023-01-10T15:27:57;6.10;92.80
29201;DHT22;16244;51.956;12.980;2023-01-10T15:30:27;6.10;92.70
29201;DHT22;16244;51.956;12.980;2023-01-10T15:32:57;6.10;92.80
29201;DHT22;16244;51.956;12.980;2023-01-10T15:35:29;6.10;92.90
29201;DHT22;16244;51.956;12.980;2023-01-10T15:38:04;6.10;92.60
29201;DHT22;16244;51.956;12.980;2023-01-10T15:40:33;6.10;92.80
29201;DHT22;16244;51.956;12.980;2023-01-10T15:43:22;6.00;92.70
29201;DHT22;16244;51.956;12.980;2023-01-10T15:45:51;6.00;92.90
29201;DHT22;16244;51.956;12.980;2023-01-10T15:48:29;5.90;93.10
29201;DHT22;16244;51.956;12.980;2023-01-10T15:51:00;5.90;93.10
29201;DHT22;16244;51.956;12.980;2023-01-10T15:53:51;5.90;93.10
29201;DHT22;16244;51.956;12.980;2023-01-10T15:56:23;5.90;93.30
29201;DHT22;16244;51.956;12.980;2023-01-10T15:58:51;5.80;93.60
29201;DHT22;16244;51.956;12.980;2023-01-10T16:01:19;5.80;93.60